Accueil
METAR-TAF:

METAR-TAF

Aéroports :

Foz do Iguaçu, Paraná, Brésil

latitude: 25-31S, longitude: 054-35W, altitude: 180 m

Observation

Le bulletin a été fait il y a 30 minutes, à 17:00 UTC
Vent 12 kt de nord
Température 27°C
Humidité 34%
Pression 1020 hPa
Visibilité 10 km ou plus
pas de nuages en-dessous de 1500 mètres et pas de cumulonimbus.

METAR: SBFI 251700Z 01012KT CAVOK 27/10 Q1020

Heure: 14:30 (17:30 UTC)

Prévision

Le bulletin a été fait il y a 8 heures et 0 minutes, à 09:30 UTC
Prévision valable du 25 à 12 UTC au 26 à 12 UTC
Vent 5 kt de est/nord-est
Visibilité 10 km ou plus
pas de nuages en-dessous de 1500 mètres et pas de cumulonimbus.
Probabilité 30%
du 25 à 15 UTC au 25 à 20 UTC
Vent 12 kt de nord-est

TAF: SBFI 250930Z 2512/2612 07005KT CAVOK TX27/2518Z TN17/2610Z PROB30 2515/2520 04012KT RMK PDN

Observations et prévisions météorologiques de plus de 4000 aéroports (messages METAR et TAF).

Les stations disponibles sont représentées par des disques jaunes et rouges sur la carte.

Passer la souris dessus pour voir le nom de la station.

Cliquer dessus pour voir les observations et prévisions météorologiques.

Pour changer de carte: cliquez sur les boutons verts avec une croix noire pour zoomer, sur le bouton vert avec un tiret pour effectuer un zoom arrière, ou sur les flèches vertes pour les cartes adjacentes.


METAR-TAF: